Vejrstation Sortsø Strand
Vejrstation Sortsø Strands historiske vejrdata
 
Daily Summary for August 01, 2021 Units:  Metric    English   Both
Daily Weekly Monthly Yearly Custom
  Current: High: Low: Average:
Temperature: 18.2 °C 18.2 °C 13.3 °C 14.7 °C
Dew Point: 13.8 °C 14.1 °C 11.4 °C 12.5 °C
Humidity: 76% 89% 76% 87%
Wind Speed: 19km/h 32km/h 0km/h 9.4km/h
Wind Gust: 6km/h 14km/h - -
WindWSW - - SSW
Pressure: 1003.8 hPa 1003.8 hPa 1002.3 hPa -
Precipitation: 0.51 mm      
Historical Graphs
 
 
Tabular Data for August 01, 2021
Time Temperature Dew Point Pressure Wind Wind Speed Wind Gust Humidity Rainfall Rate (Hourly) solar
00:04 15.2 °C 12.8 °C 1002.3 hPa SW 2 km/h   86% 0.00 mm 0.00 W/m2
00:09 15.2 °C 12.8 °C 1002.4 hPa SW 4 km/h   86% 0.00 mm 0.00 W/m2
00:14 15.2 °C 12.9 °C 1002.4 hPa SW 6 km/h 2 km/h 86% 0.00 mm 0.00 W/m2
00:19 15.3 °C 12.9 °C 1002.4 hPa SW 2 km/h   86% 0.00 mm 0.00 W/m2
00:24 15.3 °C 13.0 °C 1002.4 hPa SW 2 km/h   86% 0.00 mm 0.00 W/m2
00:29 15.3 °C 13.0 °C 1002.5 hPa Calm     86% 0.00 mm 0.00 W/m2
00:34 15.3 °C 12.9 °C 1002.5 hPa SW 11 km/h 4 km/h 86% 0.00 mm 0.00 W/m2
00:39 15.3 °C 13.0 °C 1002.6 hPa SSW 18 km/h 6 km/h 86% 0.00 mm 0.00 W/m2
00:44 15.3 °C 13.0 °C 1002.7 hPa SW 19 km/h 6 km/h 86% 0.00 mm 0.00 W/m2
00:49 15.3 °C 13.0 °C 1002.8 hPa SW 31 km/h 11 km/h 86% 0.00 mm 0.00 W/m2
00:54 15.3 °C 12.9 °C 1003.0 hPa WSW 32 km/h 13 km/h 86% 0.25 mm 0.00 W/m2
00:59 15.2 °C 13.0 °C 1003.0 hPa West 19 km/h 13 km/h 87% 0.25 mm 0.00 W/m2
01:04 14.9 °C 12.8 °C 1003.0 hPa WSW 19 km/h 8 km/h 87% 0.25 mm 0.00 W/m2
01:09 14.6 °C 12.6 °C 1003.0 hPa WSW 19 km/h 11 km/h 88% 0.25 mm 0.00 W/m2
01:14 14.3 °C 12.4 °C 1002.9 hPa WSW 19 km/h 3 km/h 88% 0.25 mm 0.00 W/m2
01:19 14.2 °C 12.2 °C 1002.9 hPa SW 17 km/h 3 km/h 88% 0.25 mm 0.00 W/m2
01:24 14.1 °C 12.3 °C 1002.9 hPa WSW 17 km/h 3 km/h 89% 0.25 mm 0.00 W/m2
01:29 14.1 °C 12.3 °C 1002.9 hPa SW 10 km/h 3 km/h 89% 0.25 mm 0.00 W/m2
01:34 14.1 °C 12.3 °C 1002.9 hPa WSW 27 km/h 8 km/h 89% 0.25 mm 0.00 W/m2
01:39 14.1 °C 12.3 °C 1003.0 hPa WSW 28 km/h 14 km/h 89% 0.51 mm 0.00 W/m2
01:44 13.9 °C 12.0 °C 1002.9 hPa WSW 18 km/h 6 km/h 88% 0.51 mm 0.00 W/m2
01:49 13.8 °C 11.9 °C 1002.9 hPa WSW 19 km/h 7 km/h 88% 0.51 mm 0.00 W/m2
01:54 13.8 °C 11.8 °C 1002.9 hPa SSW 19 km/h 6 km/h 88% 0.51 mm 0.00 W/m2
01:59 13.7 °C 11.6 °C 1002.8 hPa SSW 2 km/h   87% 0.25 mm 0.00 W/m2
02:04 13.7 °C 11.6 °C 1002.8 hPa Calm     87% 0.25 mm 0.00 W/m2
02:09 13.6 °C 11.5 °C 1002.7 hPa Calm     87% 0.25 mm 0.00 W/m2
02:14 13.6 °C 11.4 °C 1002.7 hPa Calm     87% 0.25 mm 0.00 W/m2
02:19 13.6 °C 11.5 °C 1002.7 hPa Calm     87% 0.25 mm 0.00 W/m2
02:24 13.7 °C 11.6 °C 1002.7 hPa Calm     87% 0.25 mm 0.00 W/m2
02:29 13.8 °C 11.7 °C 1002.7 hPa Calm     87% 0.25 mm 0.00 W/m2
02:34 13.9 °C 11.9 °C 1002.7 hPa Calm     88% 0.25 mm 0.00 W/m2
02:39 14.0 °C 12.1 °C 1002.7 hPa Calm     88% 0.00 mm 0.00 W/m2
02:44 14.2 °C 12.2 °C 1002.7 hPa Calm     88% 0.00 mm 0.00 W/m2
02:49 14.2 °C 12.3 °C 1002.7 hPa Calm     88% 0.00 mm 0.00 W/m2
02:54 14.3 °C 12.3 °C 1002.8 hPa SSW 17 km/h 6 km/h 88% 0.00 mm 0.00 W/m2
02:59 14.3 °C 12.3 °C 1002.7 hPa South 15 km/h 6 km/h 88% 0.00 mm 0.00 W/m2
03:04 14.3 °C 12.4 °C 1002.6 hPa South 8 km/h 4 km/h 88% 0.00 mm 0.00 W/m2
03:09 14.3 °C 12.3 °C 1002.5 hPa South 6 km/h 1 km/h 88% 0.00 mm 0.00 W/m2
03:14 14.3 °C 12.3 °C 1002.5 hPa South 6 km/h 1 km/h 88% 0.00 mm 0.00 W/m2
03:19 14.2 °C 12.3 °C 1002.4 hPa South 4 km/h 1 km/h 88% 0.00 mm 0.00 W/m2
03:24 14.2 °C 12.2 °C 1002.5 hPa South 8 km/h 3 km/h 88% 0.00 mm 0.00 W/m2
03:29 14.1 °C 12.2 °C 1002.5 hPa South 10 km/h 5 km/h 88% 0.00 mm 0.00 W/m2
03:34 14.1 °C 12.1 °C 1002.5 hPa South 6 km/h 1 km/h 88% 0.00 mm 0.00 W/m2
03:39 13.9 °C 12.0 °C 1002.5 hPa Calm     88% 0.00 mm 0.00 W/m2
03:44 13.8 °C 11.9 °C 1002.5 hPa Calm     88% 0.00 mm 0.00 W/m2
03:49 13.7 °C 11.7 °C 1002.5 hPa Calm     88% 0.00 mm 0.00 W/m2
03:54 13.6 °C 11.6 °C 1002.5 hPa Calm     88% 0.00 mm 0.00 W/m2
03:59 13.4 °C 11.5 °C 1002.6 hPa Calm     88% 0.00 mm 0.00 W/m2
04:04 13.4 °C 11.6 °C 1002.7 hPa Calm     89% 0.00 mm 0.00 W/m2
04:09 13.3 °C 11.6 °C 1002.8 hPa Calm     89% 0.00 mm 0.00 W/m2
04:14 13.4 °C 11.6 °C 1003.0 hPa Calm     89% 0.00 mm 0.00 W/m2
04:19 13.4 °C 11.6 °C 1003.0 hPa Calm     89% 0.00 mm 0.00 W/m2
04:24 13.4 °C 11.7 °C 1003.0 hPa Calm     89% 0.00 mm 0.00 W/m2
04:29 13.5 °C 11.7 °C 1003.0 hPa Calm     89% 0.00 mm 0.00 W/m2
04:34 13.6 °C 11.8 °C 1002.9 hPa Calm     89% 0.00 mm 0.00 W/m2
04:39 13.6 °C 11.8 °C 1002.9 hPa Calm     89% 0.00 mm 0.00 W/m2
04:44 13.6 °C 11.8 °C 1002.9 hPa South 10 km/h 3 km/h 89% 0.00 mm 0.00 W/m2
04:49 13.6 °C 11.8 °C 1003.0 hPa South 8 km/h 1 km/h 89% 0.00 mm 0.00 W/m2
04:54 13.6 °C 11.8 °C 1002.9 hPa South 8 km/h 4 km/h 89% 0.00 mm 0.00 W/m2
04:59 13.6 °C 11.8 °C 1002.8 hPa South 8 km/h 2 km/h 89% 0.00 mm 0.00 W/m2
05:04 13.6 °C 11.8 °C 1002.9 hPa South 8 km/h 2 km/h 89% 0.00 mm 0.00 W/m2
05:09 13.6 °C 11.8 °C 1002.9 hPa South 10 km/h 4 km/h 89% 0.00 mm 0.00 W/m2
05:14 13.5 °C 11.7 °C 1002.8 hPa South 10 km/h 3 km/h 89% 0.00 mm 0.00 W/m2
05:19 13.4 °C 11.7 °C 1002.9 hPa South 10 km/h 5 km/h 89% 0.00 mm 0.00 W/m2
05:24 13.4 °C 11.7 °C 1002.9 hPa South 10 km/h 3 km/h 89% 0.00 mm 0.00 W/m2
05:29 13.5 °C 11.7 °C 1002.9 hPa South 15 km/h 7 km/h 89% 0.00 mm 0.00 W/m2
05:34 13.6 °C 11.8 °C 1003.0 hPa South 11 km/h 5 km/h 89% 0.00 mm 0.00 W/m2
05:39 13.7 °C 11.9 °C 1003.0 hPa South 7 km/h 1 km/h 89% 0.00 mm 0.00 W/m2
05:44 13.7 °C 11.9 °C 1003.0 hPa Calm     89% 0.00 mm 0.00 W/m2
05:49 13.8 °C 12.0 °C 1003.1 hPa South 6 km/h 2 km/h 89% 0.00 mm 0.00 W/m2
05:54 13.8 °C 12.1 °C 1003.2 hPa South 10 km/h 7 km/h 89% 0.00 mm 0.00 W/m2
05:59 13.8 °C 12.1 °C 1003.3 hPa South 11 km/h 6 km/h 89% 0.00 mm 0.00 W/m2
06:04 13.9 °C 12.1 °C 1003.2 hPa South 11 km/h 6 km/h 89% 0.00 mm 0.00 W/m2
06:09 13.9 °C 12.2 °C 1003.2 hPa South 11 km/h 6 km/h 89% 0.00 mm 0.00 W/m2
06:14 13.9 °C 12.2 °C 1003.2 hPa South 7 km/h 2 km/h 89% 0.00 mm 0.00 W/m2
06:19 14.0 °C 12.2 °C 1003.2 hPa South 8 km/h 2 km/h 89% 0.00 mm 0.00 W/m2
06:24 14.1 °C 12.1 °C 1003.2 hPa South 4 km/h 1 km/h 88% 0.00 mm 0.00 W/m2
06:29 14.1 °C 12.2 °C 1003.3 hPa South 11 km/h 4 km/h 88% 0.00 mm 0.00 W/m2
06:34 14.2 °C 12.2 °C 1003.3 hPa South 6 km/h 1 km/h 88% 0.00 mm 0.00 W/m2
06:39 14.2 °C 12.3 °C 1003.3 hPa Calm     88% 0.00 mm 0.00 W/m2
06:44 14.3 °C 12.3 °C 1003.4 hPa Calm     88% 0.00 mm 0.00 W/m2
06:49 14.3 °C 12.2 °C 1003.5 hPa South 6 km/h 3 km/h 87% 0.00 mm 0.00 W/m2
06:54 14.3 °C 12.4 °C 1003.5 hPa South 8 km/h 1 km/h 88% 0.00 mm 0.00 W/m2
06:59 14.5 °C 12.6 °C 1003.6 hPa South 8 km/h 2 km/h 88% 0.00 mm 0.00 W/m2
07:04 14.6 °C 12.6 °C 1003.7 hPa South 6 km/h 3 km/h 88% 0.00 mm 0.00 W/m2
07:09 14.7 °C 12.5 °C 1003.7 hPa South 6 km/h 2 km/h 87% 0.00 mm 0.00 W/m2
07:14 14.7 °C 12.6 °C 1003.7 hPa South 6 km/h 2 km/h 87% 0.00 mm 0.00 W/m2
07:19 14.7 °C 12.6 °C 1003.7 hPa South 5 km/h 2 km/h 87% 0.00 mm 0.00 W/m2
07:24 14.7 °C 12.6 °C 1003.7 hPa South 6 km/h 2 km/h 87% 0.00 mm 0.00 W/m2
07:29 14.7 °C 12.6 °C 1003.7 hPa South 11 km/h 6 km/h 87% 0.00 mm 0.00 W/m2
07:34 14.8 °C 12.6 °C 1003.7 hPa South 6 km/h 2 km/h 87% 0.00 mm 0.00 W/m2
07:39 14.8 °C 12.7 °C 1003.7 hPa South 8 km/h 4 km/h 87% 0.00 mm 0.00 W/m2
07:44 14.9 °C 12.7 °C 1003.6 hPa South 10 km/h 4 km/h 87% 0.00 mm 0.00 W/m2
07:49 15.0 °C 12.8 °C 1003.6 hPa South 6 km/h 1 km/h 87% 0.00 mm 0.00 W/m2
07:54 15.2 °C 13.0 °C 1003.7 hPa South 6 km/h 2 km/h 87% 0.00 mm 0.00 W/m2
07:59 15.6 °C 13.3 °C 1003.7 hPa SSW 10 km/h 3 km/h 87% 0.00 mm 0.00 W/m2
08:04 15.8 °C 13.4 °C 1003.6 hPa SSW 19 km/h 6 km/h 86% 0.00 mm 0.00 W/m2
08:09 16.1 °C 13.6 °C 1003.5 hPa SSW 10 km/h 2 km/h 86% 0.00 mm 0.00 W/m2
08:14 16.3 °C 13.8 °C 1003.6 hPa South 15 km/h 4 km/h 85% 0.00 mm 0.00 W/m2
08:19 16.6 °C 13.8 °C 1003.7 hPa SSW 19 km/h 7 km/h 85% 0.00 mm 0.00 W/m2
08:24 16.8 °C 13.9 °C 1003.6 hPa SW 15 km/h 6 km/h 83% 0.00 mm 0.00 W/m2
08:29 16.9 °C 13.8 °C 1003.5 hPa SW 21 km/h 11 km/h 82% 0.00 mm 0.00 W/m2
08:34 16.9 °C 13.6 °C 1003.6 hPa SSW 24 km/h 9 km/h 81% 0.00 mm 0.00 W/m2
08:39 16.9 °C 13.7 °C 1003.7 hPa SSW 15 km/h 5 km/h 81% 0.00 mm 0.00 W/m2
08:44 17.0 °C 13.7 °C 1003.7 hPa SSW 10 km/h 4 km/h 81% 0.00 mm 0.00 W/m2
08:49 17.0 °C 13.7 °C 1003.7 hPa SSW 6 km/h 1 km/h 81% 0.00 mm 0.00 W/m2
08:54 17.1 °C 13.8 °C 1003.7 hPa SW 10 km/h 4 km/h 81% 0.00 mm 0.00 W/m2
08:59 17.2 °C 13.8 °C 1003.7 hPa SW 16 km/h 4 km/h 81% 0.00 mm 0.00 W/m2
09:04 17.4 °C 13.8 °C 1003.7 hPa SW 17 km/h 7 km/h 80% 0.00 mm 0.00 W/m2
09:09 17.6 °C 13.9 °C 1003.7 hPa SW 23 km/h 10 km/h 79% 0.00 mm 0.00 W/m2
09:14 17.7 °C 13.9 °C 1003.7 hPa SW 22 km/h 9 km/h 79% 0.00 mm 0.00 W/m2
09:19 18.0 °C 14.1 °C 1003.7 hPa WSW 19 km/h 6 km/h 78% 0.00 mm 0.00 W/m2
09:24 18.2 °C 14.1 °C 1003.8 hPa SSW 17 km/h 10 km/h 77% 0.00 mm 0.00 W/m2
09:29 18.2 °C 13.9 °C 1003.8 hPa SW 18 km/h 9 km/h 76% 0.00 mm 0.00 W/m2
09:34 17.9 °C 13.4 °C 1003.8 hPa SW 19 km/h 13 km/h 76% 0.00 mm 0.00 W/m2
09:39 17.9 °C 13.7 °C 1003.8 hPa SW 19 km/h 8 km/h 77% 0.00 mm 0.00 W/m2
09:44 18.2 °C 13.8 °C 1003.8 hPa WSW 19 km/h 6 km/h 76% 0.00 mm 0.00 W/m2
Vejrstation Sortsø Strand
Compliments of Weather Underground - 1.5 mb

© 2006-2021 strandvejr.dk